Time;durP1;ratioP1;P1;durP2;ratioP2;P2;SDS_P1;SDS_P2;PMS_P1;PMS_P2;Temp;Humidity;BMP_temperature;BMP_pressure;BME280_temperature;BME280_humidity;BME280_pressure;Samples;Min_cycle;Max_cycle;Signal;HPM_P1;HPM_P2
2022/12/10 00:01:15;;;;;;;60.22;25.88;;;1.40;99.90;;;;;;5102736;28;20020;-68
2022/12/10 00:03:42;;;;;;;66.90;26.73;;;1.40;99.90;;;;;;5102652;28;20054;-68
2022/12/10 00:06:12;;;;;;;64.68;26.83;;;1.30;99.90;;;;;;5101976;28;20047;-68
2022/12/10 00:08:38;;;;;;;63.10;25.35;;;1.30;99.90;;;;;;5102366;28;20817;-68
2022/12/10 00:11:07;;;;;;;62.30;24.33;;;1.40;99.90;;;;;;5102506;28;20074;-68
2022/12/10 00:13:34;;;;;;;61.90;25.27;;;1.30;99.90;;;;;;5102986;28;20118;-69
2022/12/10 00:16:00;;;;;;;72.93;25.13;;;1.40;99.90;;;;;;5103208;28;20036;-67
2022/12/10 00:18:26;;;;;;;64.03;25.63;;;1.30;99.90;;;;;;5102260;28;20028;-68
2022/12/10 00:20:51;;;;;;;62.50;23.90;;;1.30;99.90;;;;;;5102341;28;20024;-69
2022/12/10 00:23:17;;;;;;;70.03;25.73;;;1.20;99.90;;;;;;5099798;28;20044;-68
2022/12/10 00:25:42;;;;;;;67.32;26.15;;;1.20;99.90;;;;;;5101055;28;20103;-68
2022/12/10 00:28:08;;;;;;;63.70;24.83;;;1.20;99.90;;;;;;5102280;28;20028;-69
2022/12/10 00:30:34;;;;;;;69.13;27.15;;;1.20;99.90;;;;;;5102476;28;20063;-67
2022/12/10 00:33:00;;;;;;;66.60;26.67;;;1.20;99.90;;;;;;5100692;28;20078;-67
2022/12/10 00:35:26;;;;;;;66.72;27.45;;;1.30;99.90;;;;;;5101255;28;20056;-67
2022/12/10 00:37:51;;;;;;;69.57;27.58;;;1.30;99.90;;;;;;5102612;28;20043;-67
2022/12/10 00:40:17;;;;;;;67.43;26.00;;;1.30;99.90;;;;;;5102647;28;20028;-67
2022/12/10 00:42:43;;;;;;;66.65;27.08;;;1.30;99.90;;;;;;5102670;28;20024;-68
2022/12/10 00:45:09;;;;;;;69.18;27.92;;;1.30;99.90;;;;;;5102547;28;20045;-67
2022/12/10 00:47:34;;;;;;;72.50;28.80;;;1.30;99.90;;;;;;5101783;28;20051;-67
2022/12/10 00:50:00;;;;;;;64.25;26.23;;;1.20;99.90;;;;;;5102281;28;20020;-69
2022/12/10 00:52:26;;;;;;;75.53;28.58;;;1.20;99.90;;;;;;5101590;28;20016;-68
2022/12/10 00:54:52;;;;;;;76.05;28.67;;;1.20;99.90;;;;;;5102426;28;20012;-68
2022/12/10 00:57:18;;;;;;;72.18;27.55;;;1.30;99.90;;;;;;5102375;28;20039;-67
2022/12/10 00:59:43;;;;;;;68.55;26.83;;;1.30;99.90;;;;;;5102156;28;20078;-68
2022/12/10 01:02:09;;;;;;;72.97;27.48;;;1.30;99.90;;;;;;5102108;28;20024;-68
2022/12/10 01:04:35;;;;;;;72.70;27.08;;;1.30;99.90;;;;;;5101661;28;20392;-67
2022/12/10 01:07:00;;;;;;;70.05;28.00;;;1.40;99.90;;;;;;5102010;28;20020;-69
2022/12/10 01:09:29;;;;;;;66.45;26.63;;;1.40;99.90;;;;;;5101017;28;20032;-67
2022/12/10 01:11:57;;;;;;;61.10;26.10;;;1.40;99.90;;;;;;5102193;28;20040;-68
2022/12/10 01:14:26;;;;;;;67.43;26.88;;;1.40;99.90;;;;;;5100300;28;20055;-68
2022/12/10 01:16:57;;;;;;;64.43;26.70;;;1.30;99.90;;;;;;5101897;28;20053;-69
2022/12/10 01:19:23;;;;;;;70.05;25.98;;;1.30;99.90;;;;;;5099906;28;20028;-69
2022/12/10 01:21:53;;;;;;;70.50;26.98;;;1.30;99.90;;;;;;5101773;28;20050;-68
2022/12/10 01:24:20;;;;;;;68.90;26.23;;;1.30;99.90;;;;;;5100851;28;20078;-68
2022/12/10 01:26:45;;;;;;;63.03;27.00;;;1.30;99.90;;;;;;5101836;28;20031;-68
2022/12/10 01:29:12;;;;;;;62.10;26.30;;;1.30;99.90;;;;;;5100824;28;20028;-67
2022/12/10 01:31:38;;;;;;;66.70;27.25;;;1.30;99.90;;;;;;5101088;28;20028;-68
2022/12/10 01:34:05;;;;;;;73.55;27.75;;;1.20;99.90;;;;;;5101877;28;20044;-68
2022/12/10 01:36:41;;;;;;;58.75;25.20;;;1.20;99.90;;;;;;5101343;28;20047;-68
2022/12/10 01:39:11;;;;;;;69.03;28.23;;;1.20;99.90;;;;;;5100926;28;21239;-68
2022/12/10 01:41:41;;;;;;;71.10;26.25;;;1.20;99.90;;;;;;5101105;28;20028;-68
2022/12/10 01:44:09;;;;;;;71.45;27.65;;;1.30;99.90;;;;;;5101761;28;20040;-69
2022/12/10 01:46:41;;;;;;;69.18;27.02;;;1.30;99.90;;;;;;5101535;28;20027;-67
2022/12/10 01:49:10;;;;;;;61.28;27.08;;;1.30;99.90;;;;;;5101546;28;20032;-68
2022/12/10 01:51:39;;;;;;;63.88;25.83;;;1.30;99.90;;;;;;5101710;28;20026;-68
2022/12/10 01:54:09;;;;;;;65.93;27.45;;;1.30;99.90;;;;;;5101848;28;20036;-68
2022/12/10 01:56:45;;;;;;;67.55;27.40;;;1.30;99.90;;;;;;5101481;28;20112;-67
2022/12/10 01:59:15;;;;;;;84.18;28.00;;;1.30;99.90;;;;;;5101489;28;20059;-69
2022/12/10 02:02:11;;;;;;;69.57;27.38;;;1.30;99.90;;;;;;5100798;28;20012;-68
2022/12/10 02:05:03;;;;;;;66.35;25.17;;;1.30;99.90;;;;;;5101908;28;20036;-70
2022/12/10 02:07:53;;;;;;;70.28;25.40;;;1.30;99.90;;;;;;5099950;28;20028;-67
2022/12/10 02:10:28;;;;;;;69.05;25.45;;;1.20;99.90;;;;;;5101861;28;20467;-68
2022/12/10 02:13:17;;;;;;;72.15;27.45;;;1.20;99.90;;;;;;5101860;28;20073;-68
2022/12/10 02:15:51;;;;;;;69.63;27.92;;;1.20;99.90;;;;;;5101093;28;20016;-69
2022/12/10 02:18:32;;;;;;;75.72;27.55;;;1.20;99.90;;;;;;5100675;28;20543;-68
2022/12/10 02:21:03;;;;;;;66.82;26.75;;;1.20;99.90;;;;;;5101327;28;20066;-67
2022/12/10 02:23:49;;;;;;;76.90;29.02;;;1.20;99.90;;;;;;5100313;28;20044;-68
2022/12/10 02:26:20;;;;;;;70.53;28.75;;;1.30;99.90;;;;;;5101657;28;20124;-69
2022/12/10 02:29:11;;;;;;;68.45;27.50;;;1.30;99.90;;;;;;5101104;28;20387;-68
2022/12/10 02:31:39;;;;;;;70.43;27.70;;;1.30;99.90;;;;;;5102389;28;20059;-68
2022/12/10 02:34:08;;;;;;;78.72;29.65;;;1.30;99.90;;;;;;5104600;28;20679;-68
2022/12/10 02:36:37;;;;;;;69.60;26.80;;;1.30;99.90;;;;;;5104064;28;20020;-68
2022/12/10 02:39:05;;;;;;;69.72;28.25;;;1.40;99.90;;;;;;5104994;28;20035;-68
2022/12/10 02:41:38;;;;;;;71.78;28.65;;;1.40;99.90;;;;;;5104646;28;20522;-68
2022/12/10 02:44:07;;;;;;;67.05;26.17;;;1.40;99.90;;;;;;5104264;28;20467;-68
2022/12/10 02:46:35;;;;;;;65.38;28.25;;;1.40;99.90;;;;;;5104344;28;20032;-68
2022/12/10 02:49:05;;;;;;;70.13;27.08;;;1.40;99.90;;;;;;5102916;28;20024;-68
2022/12/10 02:51:31;;;;;;;66.10;26.77;;;1.50;99.90;;;;;;5104067;28;20023;-68
2022/12/10 02:54:02;;;;;;;65.50;26.60;;;1.50;99.90;;;;;;5104152;28;20028;-68
2022/12/10 02:56:42;;;;;;;65.00;27.75;;;1.50;99.90;;;;;;5103408;28;20028;-68
2022/12/10 02:59:22;;;;;;;70.18;25.20;;;1.50;99.90;;;;;;5104648;28;20040;-69
2022/12/10 03:02:06;;;;;;;66.25;25.95;;;1.50;99.90;;;;;;5104847;28;20047;-68
2022/12/10 03:04:43;;;;;;;67.65;26.52;;;1.60;99.90;;;;;;5104154;28;20043;-68
2022/12/10 03:07:18;;;;;;;69.90;27.63;;;1.50;99.90;;;;;;5104421;28;20070;-69
2022/12/10 03:10:01;;;;;;;62.67;26.27;;;1.50;99.90;;;;;;5103921;28;20036;-68
2022/12/10 03:12:36;;;;;;;65.75;26.02;;;1.50;99.90;;;;;;5103238;28;20111;-68
2022/12/10 03:15:06;;;;;;;67.05;27.13;;;1.50;99.90;;;;;;5104516;28;20039;-68
2022/12/10 03:17:32;;;;;;;72.60;27.75;;;1.50;99.90;;;;;;5104277;28;20067;-67
2022/12/10 03:20:00;;;;;;;63.22;25.63;;;1.50;99.90;;;;;;5104334;28;20024;-68
2022/12/10 03:22:26;;;;;;;70.53;27.92;;;1.60;99.90;;;;;;5104344;28;20035;-67
2022/12/10 03:24:52;;;;;;;70.32;29.10;;;1.60;99.90;;;;;;5103772;28;20055;-67
2022/12/10 03:27:21;;;;;;;75.80;27.73;;;1.60;99.90;;;;;;5104324;28;20027;-68
2022/12/10 03:29:51;;;;;;;76.63;28.02;;;1.60;99.90;;;;;;5104069;28;20445;-66
2022/12/10 03:32:20;;;;;;;63.83;26.65;;;1.60;99.90;;;;;;5103821;28;20032;-68
2022/12/10 03:34:47;;;;;;;71.55;28.15;;;1.60;99.90;;;;;;5103518;28;20436;-68
2022/12/10 03:37:14;;;;;;;68.97;27.23;;;1.60;99.90;;;;;;5103665;28;20023;-68
2022/12/10 03:39:42;;;;;;;65.47;26.75;;;1.60;99.90;;;;;;5103507;28;20047;-68
2022/12/10 03:42:08;;;;;;;71.47;26.48;;;1.60;99.90;;;;;;5103887;28;20024;-68
2022/12/10 03:44:36;;;;;;;68.57;27.77;;;1.60;99.90;;;;;;5103568;28;20046;-67
2022/12/10 03:47:04;;;;;;;69.72;27.25;;;1.60;99.90;;;;;;5103689;28;20040;-68
2022/12/10 03:49:31;;;;;;;72.20;28.23;;;1.60;99.90;;;;;;5103817;28;20031;-68
2022/12/10 03:51:56;;;;;;;69.78;27.08;;;1.60;99.90;;;;;;5102721;28;20016;-69
2022/12/10 03:54:22;;;;;;;63.88;26.90;;;1.60;99.90;;;;;;5103611;28;20520;-68
2022/12/10 03:56:48;;;;;;;62.20;25.05;;;1.60;99.90;;;;;;5103826;28;20023;-68
2022/12/10 03:59:14;;;;;;;60.50;26.00;;;1.60;99.90;;;;;;5102778;28;20032;-67
2022/12/10 04:01:40;;;;;;;61.20;25.40;;;1.60;99.90;;;;;;5103791;28;20069;-68
2022/12/10 04:04:06;;;;;;;61.15;25.10;;;1.60;99.90;;;;;;5103595;28;20040;-68
2022/12/10 04:06:32;;;;;;;58.00;25.27;;;1.60;99.90;;;;;;5103261;28;20028;-67
2022/12/10 04:08:57;;;;;;;59.40;24.83;;;1.60;99.90;;;;;;5102931;28;20023;-67
2022/12/10 04:11:23;;;;;;;59.75;23.98;;;1.60;99.90;;;;;;5103017;28;20494;-67
2022/12/10 04:16:35;;;;;;;59.45;24.27;;;1.60;99.90;;;;;;5102914;28;20030;-69
2022/12/10 04:19:05;;;;;;;62.22;24.27;;;1.60;99.90;;;;;;5102574;28;20052;-68
2022/12/10 04:27:12;;;;;;;64.03;23.90;;;1.50;99.90;;;;;;5102442;28;20046;-68
2022/12/10 04:29:39;;;;;;;63.83;23.65;;;1.50;99.90;;;;;;5101652;28;20077;-68
2022/12/10 04:32:05;;;;;;;56.45;23.42;;;1.50;99.90;;;;;;5102771;28;20024;-68
2022/12/10 04:34:31;;;;;;;60.67;23.98;;;1.40;99.90;;;;;;5102953;28;20100;-68
2022/12/10 04:36:58;;;;;;;57.63;24.15;;;1.40;99.90;;;;;;5102392;28;20476;-68
2022/12/10 04:39:24;;;;;;;70.65;25.10;;;1.40;99.90;;;;;;5102331;28;20020;-68
2022/12/10 04:41:50;;;;;;;51.00;21.60;;;1.30;99.90;;;;;;5102754;28;20020;-67
2022/12/10 04:44:17;;;;;;;61.80;23.13;;;1.30;99.90;;;;;;5102705;28;20070;-69
2022/12/10 04:46:43;;;;;;;46.90;20.17;;;1.30;99.90;;;;;;5102545;28;20053;-69
2022/12/10 04:49:09;;;;;;;54.90;21.58;;;1.20;99.90;;;;;;5101845;28;20035;-68
2022/12/10 04:51:34;;;;;;;51.75;21.73;;;1.20;99.90;;;;;;5102535;28;20024;-67
2022/12/10 04:54:00;;;;;;;53.85;22.45;;;1.30;99.90;;;;;;5101471;28;20562;-67
2022/12/10 04:56:26;;;;;;;55.92;22.55;;;1.20;99.90;;;;;;5101909;28;20041;-69
2022/12/10 04:58:51;;;;;;;52.05;21.48;;;1.20;99.90;;;;;;5102014;28;20032;-68
2022/12/10 05:01:20;;;;;;;52.55;21.13;;;1.30;99.90;;;;;;5102236;28;20059;-68
2022/12/10 05:03:46;;;;;;;54.10;22.27;;;1.20;99.90;;;;;;5101793;28;20032;-69
2022/12/10 05:06:14;;;;;;;58.40;22.90;;;1.20;99.90;;;;;;5101825;28;20035;-68
2022/12/10 05:08:40;;;;;;;56.13;21.58;;;1.20;99.90;;;;;;5101514;28;20034;-68
2022/12/10 05:11:12;;;;;;;48.05;21.65;;;1.20;99.90;;;;;;5101833;28;20043;-68
2022/12/10 05:13:39;;;;;;;56.20;22.25;;;1.20;99.90;;;;;;5101797;28;20032;-68
2022/12/10 05:16:10;;;;;;;51.33;21.70;;;1.20;99.90;;;;;;5101960;28;20024;-68
2022/12/10 05:18:36;;;;;;;50.10;20.00;;;1.20;99.90;;;;;;5102372;28;20107;-70
2022/12/10 05:21:05;;;;;;;51.58;21.08;;;1.30;99.90;;;;;;5102171;28;20454;-68
2022/12/10 05:23:31;;;;;;;58.75;23.25;;;1.20;99.90;;;;;;5101522;28;20048;-68
2022/12/10 05:26:18;;;;;;;44.72;19.40;;;1.20;99.90;;;;;;5102449;28;20035;-68
2022/12/10 05:28:46;;;;;;;48.33;21.48;;;1.20;99.90;;;;;;5102056;28;20020;-69
2022/12/10 05:31:30;;;;;;;55.63;22.10;;;1.20;99.90;;;;;;5101444;28;20027;-69
2022/12/10 05:33:57;;;;;;;43.22;19.90;;;1.20;99.90;;;;;;5102454;28;20028;-69
2022/12/10 05:36:26;;;;;;;40.65;18.38;;;1.20;99.90;;;;;;5101048;28;20024;-69
2022/12/10 05:38:54;;;;;;;42.58;17.80;;;1.20;99.90;;;;;;5101135;28;20113;-69
2022/12/10 05:41:25;;;;;;;46.97;19.58;;;1.20;99.90;;;;;;5101903;28;20024;-69
2022/12/10 05:43:53;;;;;;;41.15;18.15;;;1.20;99.90;;;;;;5102138;28;20028;-68
2022/12/10 05:46:22;;;;;;;49.80;20.58;;;1.20;99.90;;;;;;5101885;28;20085;-68
2022/12/10 05:48:48;;;;;;;33.97;15.55;;;1.20;99.90;;;;;;5101836;28;20464;-69
2022/12/10 05:51:18;;;;;;;36.65;16.30;;;1.20;99.90;;;;;;5101307;28;20908;-70
2022/12/10 05:53:44;;;;;;;33.80;14.55;;;1.20;99.90;;;;;;5102122;28;20040;-69
2022/12/10 05:56:12;;;;;;;39.55;16.35;;;1.20;99.90;;;;;;5101488;28;20028;-69
2022/12/10 05:58:39;;;;;;;40.50;17.42;;;1.20;99.90;;;;;;5101480;28;20028;-70
2022/12/10 06:01:07;;;;;;;34.97;14.98;;;1.20;99.90;;;;;;5101990;28;20028;-69
2022/12/10 06:03:33;;;;;;;40.50;18.88;;;1.20;99.90;;;;;;5101420;28;20032;-68
2022/12/10 06:05:58;;;;;;;40.38;17.17;;;1.20;99.90;;;;;;5102878;28;20020;-68
2022/12/10 06:08:24;;;;;;;33.92;14.73;;;1.20;99.90;;;;;;5102527;28;20043;-68
2022/12/10 06:10:49;;;;;;;29.40;13.13;;;1.20;99.90;;;;;;5104511;28;20065;-67
2022/12/10 06:13:15;;;;;;;29.52;12.80;;;1.20;99.90;;;;;;5105511;28;20550;-68
2022/12/10 06:15:43;;;;;;;44.78;18.13;;;1.20;99.90;;;;;;5105978;28;20052;-68
2022/12/10 06:18:08;;;;;;;43.67;18.33;;;1.20;99.90;;;;;;5104875;28;20032;-68
2022/12/10 06:20:37;;;;;;;49.70;19.90;;;1.20;99.90;;;;;;5105866;28;20036;-68
2022/12/10 06:23:02;;;;;;;45.55;20.05;;;1.30;99.90;;;;;;5104527;28;20044;-68
2022/12/10 06:25:28;;;;;;;42.60;19.42;;;1.30;99.90;;;;;;5104968;28;20127;-68
2022/12/10 06:27:53;;;;;;;43.42;18.02;;;1.30;99.90;;;;;;5105551;28;20103;-67
2022/12/10 06:30:19;;;;;;;44.05;19.83;;;1.30;99.90;;;;;;5105282;28;20474;-68
2022/12/10 06:32:45;;;;;;;49.15;20.80;;;1.30;99.90;;;;;;5103617;28;20049;-69
2022/12/10 06:35:11;;;;;;;44.13;19.33;;;1.30;99.90;;;;;;5104036;28;20107;-71
2022/12/10 06:37:42;;;;;;;48.08;21.05;;;1.30;99.90;;;;;;5105230;28;20058;-70
2022/12/10 06:40:08;;;;;;;47.53;19.90;;;1.30;99.90;;;;;;5104002;28;20091;-71
2022/12/10 06:42:33;;;;;;;41.25;19.05;;;1.30;99.90;;;;;;5104540;28;20028;-69
2022/12/10 06:44:59;;;;;;;45.20;19.10;;;1.40;99.90;;;;;;5100205;28;20386;-68
2022/12/10 06:47:25;;;;;;;41.55;19.80;;;1.30;99.90;;;;;;5102192;28;20020;-68
2022/12/10 06:49:51;;;;;;;46.00;19.60;;;1.30;99.90;;;;;;5101454;28;20052;-69
2022/12/10 06:52:17;;;;;;;42.72;20.27;;;1.30;99.90;;;;;;5102763;28;20059;-68
2022/12/10 06:54:42;;;;;;;41.80;19.10;;;1.30;99.90;;;;;;5102424;28;20032;-71
2022/12/10 06:57:08;;;;;;;41.88;18.77;;;1.30;99.90;;;;;;5102973;28;20057;-70
2022/12/10 06:59:34;;;;;;;45.63;20.13;;;1.30;99.90;;;;;;5102561;28;20039;-68
2022/12/10 07:02:00;;;;;;;42.08;18.52;;;1.30;99.90;;;;;;5102871;28;20036;-68
2022/12/10 07:04:25;;;;;;;43.53;19.00;;;1.30;99.90;;;;;;5102786;28;20039;-70
2022/12/10 07:06:51;;;;;;;45.45;19.58;;;1.30;99.90;;;;;;5098644;28;20032;-69
2022/12/10 07:09:16;;;;;;;48.20;19.60;;;1.40;99.90;;;;;;5102870;28;20032;-70
2022/12/10 07:11:42;;;;;;;38.35;18.60;;;1.30;99.90;;;;;;5102862;28;20051;-70
2022/12/10 07:14:15;;;;;;;32.20;14.40;;;1.40;99.90;;;;;;5101495;28;20040;-68
2022/12/10 07:16:41;;;;;;;26.35;12.88;;;1.40;99.90;;;;;;5101550;28;20105;-69
2022/12/10 07:19:10;;;;;;;29.65;12.60;;;1.30;99.90;;;;;;5101392;28;20027;-69
2022/12/10 07:21:39;;;;;;;32.72;14.88;;;1.40;99.90;;;;;;5102655;28;20099;-69
2022/12/10 07:24:13;;;;;;;31.50;14.15;;;1.40;99.90;;;;;;5100807;28;20163;-69
2022/12/10 07:26:42;;;;;;;32.58;15.13;;;1.40;99.90;;;;;;5102916;28;20495;-69
2022/12/10 07:29:13;;;;;;;35.65;15.05;;;1.40;99.90;;;;;;5102963;28;20024;-70
2022/12/10 07:31:39;;;;;;;35.60;17.13;;;1.40;99.90;;;;;;5100166;28;20032;-70
2022/12/10 07:34:05;;;;;;;41.00;18.85;;;1.40;99.90;;;;;;5102515;28;20032;-70
2022/12/10 07:36:30;;;;;;;36.90;17.10;;;1.40;99.90;;;;;;5102301;28;20061;-69
2022/12/10 07:38:56;;;;;;;36.60;16.98;;;1.40;99.90;;;;;;5102412;28;20055;-69
2022/12/10 07:41:23;;;;;;;43.90;18.95;;;1.40;99.90;;;;;;5100050;28;20020;-69
2022/12/10 07:43:49;;;;;;;35.58;17.45;;;1.50;99.90;;;;;;5101581;28;20036;-69
2022/12/10 07:46:25;;;;;;;36.65;16.52;;;1.50;99.90;;;;;;5101711;28;20036;-71
2022/12/10 07:48:51;;;;;;;41.88;16.10;;;1.50;99.90;;;;;;5098289;28;20047;-69
2022/12/10 07:51:20;;;;;;;32.50;15.35;;;1.40;99.90;;;;;;5099012;28;20102;-70
2022/12/10 07:53:46;;;;;;;40.83;17.83;;;1.40;99.90;;;;;;5098074;28;20037;-69
2022/12/10 07:56:13;;;;;;;42.92;17.85;;;1.40;99.90;;;;;;5098569;28;20031;-71
2022/12/10 07:58:43;;;;;;;43.92;17.95;;;1.40;99.90;;;;;;5098831;28;20024;-69
2022/12/10 08:01:12;;;;;;;42.00;18.55;;;1.40;99.90;;;;;;5099088;28;20028;-70
2022/12/10 08:03:38;;;;;;;38.63;17.63;;;1.40;99.90;;;;;;5099702;28;20028;-70
2022/12/10 08:06:09;;;;;;;37.13;18.13;;;1.40;99.90;;;;;;5099796;28;20090;-70
2022/12/10 08:08:37;;;;;;;37.97;18.20;;;1.40;99.90;;;;;;5100962;28;20020;-70
2022/12/10 08:11:06;;;;;;;41.10;17.30;;;1.40;99.90;;;;;;5101679;28;20795;-69
2022/12/10 08:13:33;;;;;;;42.08;18.52;;;1.40;99.90;;;;;;5101412;28;20039;-70
2022/12/10 08:16:16;;;;;;;38.42;18.20;;;1.50;99.90;;;;;;5099690;28;20027;-70
2022/12/10 08:18:42;;;;;;;41.03;18.63;;;1.50;99.90;;;;;;5100866;28;20039;-71
2022/12/10 08:21:17;;;;;;;36.10;17.33;;;1.50;99.90;;;;;;5096585;28;20064;-69
2022/12/10 08:23:43;;;;;;;36.05;17.35;;;1.50;99.90;;;;;;5094146;28;20044;-68
2022/12/10 08:26:13;;;;;;;37.65;18.08;;;1.50;99.90;;;;;;5099270;28;20063;-70
2022/12/10 08:28:39;;;;;;;39.25;18.60;;;1.50;99.90;;;;;;5097843;28;20028;-70
2022/12/10 08:31:06;;;;;;;36.60;17.75;;;1.50;99.90;;;;;;5098075;28;20487;-69
2022/12/10 08:33:36;;;;;;;54.08;24.23;;;1.60;99.90;;;;;;5095854;28;20450;-69
2022/12/10 08:36:04;;;;;;;44.45;19.23;;;1.60;99.90;;;;;;5098801;28;20028;-69
2022/12/10 08:38:30;;;;;;;31.83;15.38;;;1.60;99.90;;;;;;5101151;28;20055;-68
2022/12/10 08:40:56;;;;;;;40.30;18.90;;;1.60;99.90;;;;;;5098202;28;20020;-68
2022/12/10 08:43:22;;;;;;;44.00;17.73;;;1.60;99.90;;;;;;5100205;28;20027;-69
2022/12/10 08:45:48;;;;;;;38.50;17.20;;;1.60;99.90;;;;;;5098083;28;20016;-68
2022/12/10 08:48:15;;;;;;;39.75;18.80;;;1.60;99.90;;;;;;5100186;28;20402;-69
2022/12/10 08:50:40;;;;;;;44.38;20.08;;;1.60;99.90;;;;;;5101134;28;20023;-70
2022/12/10 08:53:07;;;;;;;42.58;18.92;;;1.60;99.90;;;;;;5098314;28;20032;-68
2022/12/10 08:55:33;;;;;;;49.15;19.67;;;1.60;99.90;;;;;;5099065;28;20115;-68
2022/12/10 08:57:59;;;;;;;44.45;20.13;;;1.60;99.90;;;;;;5100850;28;20020;-69
2022/12/10 09:00:26;;;;;;;45.13;19.25;;;1.60;99.90;;;;;;5100897;28;20095;-68
2022/12/10 09:02:51;;;;;;;44.95;20.05;;;1.60;99.90;;;;;;5100450;28;20024;-69
2022/12/10 09:05:17;;;;;;;44.60;20.65;;;1.60;99.90;;;;;;5100956;28;20039;-69
2022/12/10 09:07:43;;;;;;;44.00;18.98;;;1.60;99.90;;;;;;5101179;28;20035;-70
2022/12/10 09:10:12;;;;;;;42.17;19.48;;;1.70;99.90;;;;;;5099232;28;20417;-69
2022/12/10 09:12:38;;;;;;;45.67;20.13;;;1.70;99.90;;;;;;5097626;28;20068;-69
2022/12/10 09:15:05;;;;;;;40.85;18.38;;;1.70;99.90;;;;;;5097073;28;20039;-69
2022/12/10 09:17:31;;;;;;;42.50;20.25;;;1.70;99.90;;;;;;5096125;28;20024;-68
2022/12/10 09:19:57;;;;;;;45.22;20.40;;;1.70;99.90;;;;;;5099330;28;20149;-69
2022/12/10 09:22:22;;;;;;;44.83;20.00;;;1.80;99.90;;;;;;5098936;28;20027;-68
2022/12/10 09:24:48;;;;;;;43.05;19.77;;;1.80;99.90;;;;;;5094048;28;20040;-68
2022/12/10 09:27:13;;;;;;;44.42;20.48;;;1.90;99.90;;;;;;5095010;28;20036;-69
2022/12/10 09:29:39;;;;;;;47.60;20.52;;;1.80;99.90;;;;;;5095764;28;20074;-69
2022/12/10 09:32:04;;;;;;;46.90;20.55;;;1.80;99.90;;;;;;5097932;28;20028;-69
2022/12/10 09:34:30;;;;;;;48.00;21.25;;;1.80;99.90;;;;;;5099055;28;20081;-69
2022/12/10 09:36:56;;;;;;;44.45;20.38;;;1.80;99.90;;;;;;5101284;28;20070;-70
2022/12/10 09:39:21;;;;;;;48.03;19.77;;;1.80;99.90;;;;;;5100057;28;20038;-70
2022/12/10 09:41:47;;;;;;;49.58;21.20;;;1.80;99.90;;;;;;5104336;28;20032;-69
2022/12/10 09:44:31;;;;;;;44.10;20.08;;;1.90;99.90;;;;;;5106055;28;20035;-69
2022/12/10 09:46:58;;;;;;;;;;;1.90;99.90;;;;;;5106818;28;20032;-69
2022/12/10 09:49:39;;;;;;;46.38;18.88;;;1.90;99.90;;;;;;5101593;28;19962;-70
2022/12/10 09:52:10;;;;;;;48.20;21.23;;;2.00;99.90;;;;;;5102834;28;21346;-69
2022/12/10 09:54:59;;;;;;;44.05;18.05;;;2.00;99.90;;;;;;5104949;28;20415;-70
2022/12/10 09:57:32;;;;;;;44.20;21.38;;;2.00;99.90;;;;;;5104555;28;20024;-70
2022/12/10 10:00:26;;;;;;;45.30;20.55;;;2.00;99.90;;;;;;5104434;28;20158;-70
2022/12/10 10:02:57;;;;;;;46.50;19.53;;;2.00;99.90;;;;;;5103570;28;20050;-70
2022/12/10 10:05:51;;;;;;;41.45;19.75;;;2.00;99.90;;;;;;5099682;28;20104;-69
2022/12/10 10:08:34;;;;;;;48.78;19.63;;;2.00;99.90;;;;;;5101762;28;20040;-70
2022/12/10 10:11:00;;;;;;;45.55;19.38;;;1.90;99.90;;;;;;5105094;28;20058;-71
2022/12/10 10:13:35;;;;;;;47.22;20.20;;;1.90;99.90;;;;;;5105967;28;20127;-69
2022/12/10 10:16:23;;;;;;;44.83;20.42;;;1.90;99.90;;;;;;5105566;28;20027;-69
2022/12/10 10:18:59;;;;;;;51.53;20.17;;;1.90;99.90;;;;;;5103587;28;20038;-69
2022/12/10 10:21:28;;;;;;;45.65;21.23;;;1.90;99.90;;;;;;5104390;28;20023;-70
2022/12/10 10:23:56;;;;;;;52.22;22.83;;;1.90;99.90;;;;;;5103377;28;20548;-69
2022/12/10 10:26:24;;;;;;;47.90;21.70;;;1.90;99.90;;;;;;5103776;28;20016;-69
2022/12/10 10:29:11;;;;;;;55.92;23.20;;;1.90;99.90;;;;;;5104040;28;20047;-69
2022/12/10 10:31:40;;;;;;;52.70;22.25;;;1.90;99.90;;;;;;5101264;28;20028;-70
2022/12/10 10:34:20;;;;;;;50.25;22.08;;;2.00;99.90;;;;;;5103173;28;20039;-68
2022/12/10 10:36:46;;;;;;;46.80;20.88;;;2.00;99.90;;;;;;5104569;28;20574;-69
2022/12/10 10:39:34;;;;;;;53.42;22.20;;;2.00;99.90;;;;;;5103760;28;20061;-70
2022/12/10 10:42:09;;;;;;;50.20;21.23;;;2.00;99.90;;;;;;5104209;28;20039;-69
2022/12/10 10:44:37;;;;;;;57.40;22.88;;;2.10;99.90;;;;;;5103159;28;20040;-68
2022/12/10 10:47:23;;;;;;;50.70;19.88;;;2.10;99.90;;;;;;5103722;28;20100;-68
2022/12/10 10:49:50;;;;;;;50.65;20.92;;;2.10;99.90;;;;;;5101776;28;20024;-70
2022/12/10 10:52:17;;;;;;;54.53;20.60;;;2.10;99.90;;;;;;5100172;28;20103;-68
2022/12/10 10:54:44;;;;;;;56.90;20.70;;;2.10;99.90;;;;;;5102825;28;20565;-68
2022/12/10 10:57:27;;;;;;;49.97;21.30;;;2.20;99.90;;;;;;5098782;28;20024;-68
2022/12/10 11:00:00;;;;;;;51.10;20.15;;;2.20;99.90;;;;;;5102297;28;20040;-69
2022/12/10 11:02:41;;;;;;;44.05;18.67;;;2.20;99.90;;;;;;5103567;28;20043;-69
2022/12/10 11:05:16;;;;;;;47.03;20.08;;;2.10;99.90;;;;;;5103728;28;20135;-69
2022/12/10 11:07:42;;;;;;;44.25;17.83;;;2.10;99.90;;;;;;5102530;28;20039;-68
2022/12/10 11:10:23;;;;;;;43.28;18.42;;;2.10;99.90;;;;;;5102187;28;20024;-69
2022/12/10 11:13:17;;;;;;;34.65;16.48;;;2.10;99.90;;;;;;5099753;28;20028;-67
2022/12/10 11:15:44;;;;;;;40.45;16.70;;;2.10;99.90;;;;;;5096821;28;20039;-68
2022/12/10 11:18:41;;;;;;;40.00;18.20;;;2.20;99.90;;;;;;5100458;28;20030;-68
2022/12/10 11:21:17;;;;;;;36.50;15.57;;;2.20;99.90;;;;;;5096117;28;20048;-69
2022/12/10 11:23:50;;;;;;;39.60;17.17;;;2.10;99.90;;;;;;5101615;28;20101;-68
2022/12/10 11:26:39;;;;;;;32.70;14.63;;;2.10;99.90;;;;;;5101662;28;20055;-70
2022/12/10 11:29:33;;;;;;;37.47;15.55;;;2.20;99.90;;;;;;5102325;28;20024;-68
2022/12/10 11:32:20;;;;;;;30.37;12.43;;;2.20;99.90;;;;;;5102090;28;20056;-69
2022/12/10 11:34:57;;;;;;;31.00;12.32;;;2.10;99.90;;;;;;5101776;28;20257;-69
2022/12/10 11:37:35;;;;;;;30.15;13.43;;;2.10;99.90;;;;;;5097938;28;20020;-69
2022/12/10 11:40:18;;;;;;;29.38;12.63;;;2.00;99.90;;;;;;5100798;28;20555;-69
2022/12/10 11:43:16;;;;;;;32.53;14.63;;;2.00;99.90;;;;;;5100026;28;20024;-68
2022/12/10 11:45:46;;;;;;;33.20;14.18;;;2.00;99.90;;;;;;5100121;28;20052;-68
2022/12/10 11:48:50;;;;;;;34.50;14.60;;;2.00;99.90;;;;;;5100284;28;20024;-71
2022/12/10 11:51:23;;;;;;;36.05;14.80;;;2.00;99.90;;;;;;5087747;28;20039;-70
2022/12/10 11:53:49;;;;;;;39.40;16.38;;;2.00;99.90;;;;;;5100886;28;20050;-68
2022/12/10 11:56:40;;;;;;;39.63;16.38;;;2.10;99.90;;;;;;5097896;28;20020;-68
2022/12/10 11:59:17;;;;;;;38.40;16.45;;;2.10;99.90;;;;;;5101893;28;20053;-68
2022/12/10 12:02:34;;;;;;;37.60;15.88;;;2.10;99.90;;;;;;5098743;28;20103;-68
2022/12/10 12:05:34;;;;;;;30.73;13.57;;;2.20;99.90;;;;;;5088954;28;20085;-70
2022/12/10 12:08:14;;;;;;;25.63;10.90;;;2.20;99.90;;;;;;5101251;28;20066;-70
2022/12/10 12:10:49;;;;;;;30.60;12.65;;;2.10;99.90;;;;;;5101046;28;20087;-69
2022/12/10 12:13:19;;;;;;;32.30;13.93;;;2.10;99.90;;;;;;5102256;28;20058;-71
2022/12/10 12:16:01;;;;;;;33.40;14.38;;;2.00;99.90;;;;;;5100696;28;20131;-69
2022/12/10 12:19:06;;;;;;;29.27;13.48;;;2.00;99.90;;;;;;5099072;28;20020;-69
2022/12/10 12:21:32;;;;;;;32.45;12.50;;;2.00;99.90;;;;;;5093009;28;20048;-68
2022/12/10 12:24:20;;;;;;;27.65;12.55;;;2.00;99.90;;;;;;5102321;28;20059;-70
2022/12/10 12:26:54;;;;;;;35.53;14.88;;;2.00;99.90;;;;;;5102639;28;20100;-69
2022/12/10 12:29:45;;;;;;;27.75;12.45;;;2.00;99.90;;;;;;5100508;28;20064;-68
2022/12/10 12:32:19;;;;;;;33.72;13.27;;;2.00;99.90;;;;;;5100638;28;20042;-70
2022/12/10 12:34:57;;;;;;;29.75;12.73;;;2.00;99.90;;;;;;5102278;28;20032;-71
2022/12/10 12:37:32;;;;;;;28.92;13.25;;;2.00;99.90;;;;;;5100266;28;20024;-68
2022/12/10 12:40:11;;;;;;;28.90;13.02;;;2.10;99.90;;;;;;5100587;28;20064;-68
2022/12/10 12:42:45;;;;;;;35.47;15.75;;;2.10;99.90;;;;;;5097750;28;20077;-68
2022/12/10 12:45:41;;;;;;;30.75;13.65;;;2.10;99.90;;;;;;5101101;28;20040;-68
2022/12/10 12:48:28;;;;;;;29.15;12.75;;;2.10;99.90;;;;;;5100962;28;20040;-69
2022/12/10 12:51:01;;;;;;;29.50;13.80;;;2.00;99.90;;;;;;5101317;28;20043;-69
2022/12/10 12:53:27;;;;;;;35.05;15.15;;;2.00;99.90;;;;;;5102166;28;20024;-70
2022/12/10 12:56:10;;;;;;;35.45;15.43;;;2.00;99.90;;;;;;5099862;28;20059;-69
2022/12/10 12:59:16;;;;;;;35.97;14.60;;;2.00;99.90;;;;;;5101592;28;20398;-71
2022/12/10 13:02:01;;;;;;;42.45;17.02;;;2.00;99.90;;;;;;5100720;28;20097;-70
2022/12/10 13:04:27;;;;;;;30.05;14.00;;;2.00;99.90;;;;;;5100624;28;20043;-70
2022/12/10 13:07:14;;;;;;;32.90;15.02;;;2.00;99.90;;;;;;5100424;28;20028;-69